sensor_id;sensor_type;location;lat;lon;timestamp;temperature;humidity
17152;DHT22;8691;50.828;4.700;2023-08-30T00:00:57;13.00;99.90
17152;DHT22;8691;50.828;4.700;2023-08-30T00:03:24;12.90;99.90
17152;DHT22;8691;50.828;4.700;2023-08-30T00:05:51;12.90;99.90
17152;DHT22;8691;50.828;4.700;2023-08-30T00:08:18;12.90;99.90
17152;DHT22;8691;50.828;4.700;2023-08-30T00:10:45;12.80;99.90
17152;DHT22;8691;50.828;4.700;2023-08-30T00:13:12;12.80;99.90
17152;DHT22;8691;50.828;4.700;2023-08-30T00:15:39;12.80;99.90
17152;DHT22;8691;50.828;4.700;2023-08-30T00:18:06;12.80;99.90
17152;DHT22;8691;50.828;4.700;2023-08-30T00:20:33;12.80;99.90
17152;DHT22;8691;50.828;4.700;2023-08-30T00:23:00;12.90;99.90
17152;DHT22;8691;50.828;4.700;2023-08-30T00:25:27;12.90;99.90
17152;DHT22;8691;50.828;4.700;2023-08-30T00:27:55;13.10;99.90
17152;DHT22;8691;50.828;4.700;2023-08-30T00:30:22;13.10;99.90
17152;DHT22;8691;50.828;4.700;2023-08-30T00:32:49;13.20;99.90
17152;DHT22;8691;50.828;4.700;2023-08-30T00:35:16;13.20;99.90
17152;DHT22;8691;50.828;4.700;2023-08-30T00:37:43;13.30;99.90
17152;DHT22;8691;50.828;4.700;2023-08-30T00:40:11;13.30;99.90
17152;DHT22;8691;50.828;4.700;2023-08-30T00:42:38;13.30;99.90
17152;DHT22;8691;50.828;4.700;2023-08-30T00:45:05;13.30;99.90
17152;DHT22;8691;50.828;4.700;2023-08-30T00:47:32;13.30;99.90
17152;DHT22;8691;50.828;4.700;2023-08-30T00:49:58;13.40;99.90
17152;DHT22;8691;50.828;4.700;2023-08-30T00:52:25;13.40;99.90
17152;DHT22;8691;50.828;4.700;2023-08-30T00:54:52;13.40;99.90
17152;DHT22;8691;50.828;4.700;2023-08-30T00:57:19;13.40;99.90
17152;DHT22;8691;50.828;4.700;2023-08-30T00:59:46;13.40;99.90
17152;DHT22;8691;50.828;4.700;2023-08-30T01:02:12;13.40;99.90
17152;DHT22;8691;50.828;4.700;2023-08-30T01:04:39;13.40;99.90
17152;DHT22;8691;50.828;4.700;2023-08-30T01:07:07;13.40;99.90
17152;DHT22;8691;50.828;4.700;2023-08-30T01:09:34;13.40;99.90
17152;DHT22;8691;50.828;4.700;2023-08-30T01:12:12;13.40;99.90
17152;DHT22;8691;50.828;4.700;2023-08-30T01:14:44;13.40;99.90
17152;DHT22;8691;50.828;4.700;2023-08-30T01:17:07;13.40;99.90
17152;DHT22;8691;50.828;4.700;2023-08-30T01:19:53;13.40;99.90
17152;DHT22;8691;50.828;4.700;2023-08-30T01:25:51;13.40;99.90
17152;DHT22;8691;50.828;4.700;2023-08-30T01:28:16;13.50;99.90
17152;DHT22;8691;50.828;4.700;2023-08-30T01:30:42;13.50;99.90
17152;DHT22;8691;50.828;4.700;2023-08-30T01:33:09;13.50;99.90
17152;DHT22;8691;50.828;4.700;2023-08-30T01:35:36;13.60;99.90
17152;DHT22;8691;50.828;4.700;2023-08-30T01:38:05;13.60;99.90
17152;DHT22;8691;50.828;4.700;2023-08-30T01:40:35;13.50;99.90
17152;DHT22;8691;50.828;4.700;2023-08-30T01:42:59;13.50;99.90
17152;DHT22;8691;50.828;4.700;2023-08-30T01:45:26;13.60;99.90
17152;DHT22;8691;50.828;4.700;2023-08-30T01:47:53;13.60;99.90
17152;DHT22;8691;50.828;4.700;2023-08-30T01:50:19;13.60;99.90
17152;DHT22;8691;50.828;4.700;2023-08-30T01:52:46;13.60;99.90
17152;DHT22;8691;50.828;4.700;2023-08-30T01:55:14;13.70;99.90
17152;DHT22;8691;50.828;4.700;2023-08-30T01:57:40;13.70;99.90
17152;DHT22;8691;50.828;4.700;2023-08-30T02:00:07;13.80;99.90
17152;DHT22;8691;50.828;4.700;2023-08-30T02:02:34;13.80;99.90
17152;DHT22;8691;50.828;4.700;2023-08-30T02:05:02;13.90;99.90
17152;DHT22;8691;50.828;4.700;2023-08-30T02:07:31;13.80;99.90
17152;DHT22;8691;50.828;4.700;2023-08-30T02:09:58;13.90;99.90
17152;DHT22;8691;50.828;4.700;2023-08-30T02:12:26;13.90;99.90
17152;DHT22;8691;50.828;4.700;2023-08-30T02:14:52;13.90;99.90
17152;DHT22;8691;50.828;4.700;2023-08-30T02:17:19;13.90;99.90
17152;DHT22;8691;50.828;4.700;2023-08-30T02:19:45;13.90;99.90
17152;DHT22;8691;50.828;4.700;2023-08-30T02:22:12;13.90;99.90
17152;DHT22;8691;50.828;4.700;2023-08-30T02:24:39;14.00;99.90
17152;DHT22;8691;50.828;4.700;2023-08-30T02:27:06;14.00;99.90
17152;DHT22;8691;50.828;4.700;2023-08-30T02:29:33;14.10;99.90
17152;DHT22;8691;50.828;4.700;2023-08-30T02:32:00;14.10;99.90
17152;DHT22;8691;50.828;4.700;2023-08-30T02:34:27;14.20;99.90
17152;DHT22;8691;50.828;4.700;2023-08-30T02:36:53;14.20;99.90
17152;DHT22;8691;50.828;4.700;2023-08-30T02:39:20;14.20;99.90
17152;DHT22;8691;50.828;4.700;2023-08-30T02:41:47;14.20;99.90
17152;DHT22;8691;50.828;4.700;2023-08-30T02:44:14;14.10;99.90
17152;DHT22;8691;50.828;4.700;2023-08-30T02:46:41;14.10;99.90
17152;DHT22;8691;50.828;4.700;2023-08-30T02:49:08;14.10;99.90
17152;DHT22;8691;50.828;4.700;2023-08-30T02:51:34;14.10;99.90
17152;DHT22;8691;50.828;4.700;2023-08-30T02:54:02;14.10;99.90
17152;DHT22;8691;50.828;4.700;2023-08-30T02:56:29;14.10;99.90
17152;DHT22;8691;50.828;4.700;2023-08-30T02:58:56;14.20;99.90
17152;DHT22;8691;50.828;4.700;2023-08-30T03:01:23;14.20;99.90
17152;DHT22;8691;50.828;4.700;2023-08-30T03:03:50;14.20;99.90
17152;DHT22;8691;50.828;4.700;2023-08-30T03:06:17;14.30;99.90
17152;DHT22;8691;50.828;4.700;2023-08-30T03:08:44;14.30;99.90
17152;DHT22;8691;50.828;4.700;2023-08-30T03:11:14;14.30;99.90
17152;DHT22;8691;50.828;4.700;2023-08-30T03:13:40;14.30;99.90
17152;DHT22;8691;50.828;4.700;2023-08-30T03:16:13;14.20;99.90
17152;DHT22;8691;50.828;4.700;2023-08-30T03:18:40;14.20;99.90
17152;DHT22;8691;50.828;4.700;2023-08-30T03:21:07;14.20;99.90
17152;DHT22;8691;50.828;4.700;2023-08-30T03:23:35;14.20;99.90
17152;DHT22;8691;50.828;4.700;2023-08-30T03:26:10;14.20;99.90
17152;DHT22;8691;50.828;4.700;2023-08-30T03:28:37;14.30;99.90
17152;DHT22;8691;50.828;4.700;2023-08-30T03:31:14;14.30;99.90
17152;DHT22;8691;50.828;4.700;2023-08-30T03:33:40;14.30;99.90
17152;DHT22;8691;50.828;4.700;2023-08-30T03:36:07;14.30;99.90
17152;DHT22;8691;50.828;4.700;2023-08-30T03:38:33;14.40;99.90
17152;DHT22;8691;50.828;4.700;2023-08-30T03:41:00;14.30;99.90
17152;DHT22;8691;50.828;4.700;2023-08-30T03:43:28;14.40;99.90
17152;DHT22;8691;50.828;4.700;2023-08-30T03:45:54;14.30;99.90
17152;DHT22;8691;50.828;4.700;2023-08-30T03:48:21;14.40;99.90
17152;DHT22;8691;50.828;4.700;2023-08-30T03:50:48;14.40;99.90
17152;DHT22;8691;50.828;4.700;2023-08-30T03:53:15;14.40;99.90
17152;DHT22;8691;50.828;4.700;2023-08-30T03:55:43;14.30;99.90
17152;DHT22;8691;50.828;4.700;2023-08-30T03:58:10;14.30;99.90
17152;DHT22;8691;50.828;4.700;2023-08-30T04:00:37;14.30;99.90
17152;DHT22;8691;50.828;4.700;2023-08-30T04:03:09;14.40;99.90
17152;DHT22;8691;50.828;4.700;2023-08-30T04:05:34;14.40;99.90
17152;DHT22;8691;50.828;4.700;2023-08-30T04:08:04;14.40;99.90
17152;DHT22;8691;50.828;4.700;2023-08-30T04:10:40;14.30;99.90
17152;DHT22;8691;50.828;4.700;2023-08-30T04:12:57;14.30;99.90
17152;DHT22;8691;50.828;4.700;2023-08-30T04:15:24;14.30;99.90
17152;DHT22;8691;50.828;4.700;2023-08-30T04:17:51;14.30;99.90
17152;DHT22;8691;50.828;4.700;2023-08-30T04:20:18;14.30;99.90
17152;DHT22;8691;50.828;4.700;2023-08-30T04:22:45;14.30;99.90
17152;DHT22;8691;50.828;4.700;2023-08-30T04:25:12;14.30;99.90
17152;DHT22;8691;50.828;4.700;2023-08-30T04:27:39;14.30;99.90
17152;DHT22;8691;50.828;4.700;2023-08-30T04:30:06;14.30;99.90
17152;DHT22;8691;50.828;4.700;2023-08-30T04:32:33;14.20;99.90
17152;DHT22;8691;50.828;4.700;2023-08-30T04:34:59;14.20;99.90
17152;DHT22;8691;50.828;4.700;2023-08-30T04:37:29;14.10;99.90
17152;DHT22;8691;50.828;4.700;2023-08-30T04:39:53;14.10;99.90
17152;DHT22;8691;50.828;4.700;2023-08-30T04:42:20;14.20;99.90
17152;DHT22;8691;50.828;4.700;2023-08-30T04:44:47;14.20;99.90
17152;DHT22;8691;50.828;4.700;2023-08-30T04:47:13;14.20;99.90
17152;DHT22;8691;50.828;4.700;2023-08-30T04:49:40;14.20;99.90
17152;DHT22;8691;50.828;4.700;2023-08-30T04:52:07;14.30;99.90
17152;DHT22;8691;50.828;4.700;2023-08-30T04:54:34;14.30;99.90
17152;DHT22;8691;50.828;4.700;2023-08-30T04:57:01;14.30;99.90
17152;DHT22;8691;50.828;4.700;2023-08-30T04:59:28;14.30;99.90
17152;DHT22;8691;50.828;4.700;2023-08-30T05:01:55;14.30;99.90
17152;DHT22;8691;50.828;4.700;2023-08-30T05:04:24;14.30;99.90
17152;DHT22;8691;50.828;4.700;2023-08-30T05:06:49;14.30;99.90
17152;DHT22;8691;50.828;4.700;2023-08-30T05:09:16;14.30;99.90
17152;DHT22;8691;50.828;4.700;2023-08-30T05:11:42;14.30;99.90
17152;DHT22;8691;50.828;4.700;2023-08-30T05:14:09;14.40;99.90
17152;DHT22;8691;50.828;4.700;2023-08-30T05:16:36;14.40;99.90
17152;DHT22;8691;50.828;4.700;2023-08-30T05:19:03;14.50;99.90
17152;DHT22;8691;50.828;4.700;2023-08-30T05:21:30;14.50;99.90
17152;DHT22;8691;50.828;4.700;2023-08-30T05:23:57;14.60;99.90
17152;DHT22;8691;50.828;4.700;2023-08-30T05:26:24;14.50;99.90
17152;DHT22;8691;50.828;4.700;2023-08-30T05:28:51;14.60;99.90
17152;DHT22;8691;50.828;4.700;2023-08-30T05:31:18;14.60;99.90
17152;DHT22;8691;50.828;4.700;2023-08-30T05:33:45;14.60;99.90
17152;DHT22;8691;50.828;4.700;2023-08-30T05:36:11;14.60;99.90
17152;DHT22;8691;50.828;4.700;2023-08-30T05:38:38;14.70;99.90
17152;DHT22;8691;50.828;4.700;2023-08-30T05:41:05;14.70;99.90
17152;DHT22;8691;50.828;4.700;2023-08-30T05:43:32;14.70;99.90
17152;DHT22;8691;50.828;4.700;2023-08-30T05:45:58;14.70;99.90
17152;DHT22;8691;50.828;4.700;2023-08-30T05:48:25;14.70;99.90
17152;DHT22;8691;50.828;4.700;2023-08-30T05:50:52;14.80;99.90
17152;DHT22;8691;50.828;4.700;2023-08-30T05:53:19;14.80;99.90
17152;DHT22;8691;50.828;4.700;2023-08-30T05:55:46;14.90;99.90
17152;DHT22;8691;50.828;4.700;2023-08-30T05:58:13;15.00;99.90
17152;DHT22;8691;50.828;4.700;2023-08-30T06:00:41;15.00;99.90
17152;DHT22;8691;50.828;4.700;2023-08-30T06:03:08;15.00;99.90
17152;DHT22;8691;50.828;4.700;2023-08-30T06:05:34;14.90;99.90
17152;DHT22;8691;50.828;4.700;2023-08-30T06:08:01;14.80;99.90
17152;DHT22;8691;50.828;4.700;2023-08-30T06:10:28;14.80;99.90
17152;DHT22;8691;50.828;4.700;2023-08-30T06:12:55;14.80;99.90
17152;DHT22;8691;50.828;4.700;2023-08-30T06:15:21;14.80;99.90
17152;DHT22;8691;50.828;4.700;2023-08-30T06:17:48;14.80;99.90
17152;DHT22;8691;50.828;4.700;2023-08-30T06:20:15;14.90;99.90
17152;DHT22;8691;50.828;4.700;2023-08-30T06:22:42;14.80;99.90
17152;DHT22;8691;50.828;4.700;2023-08-30T06:25:09;14.80;99.90
17152;DHT22;8691;50.828;4.700;2023-08-30T06:27:40;14.70;99.90
17152;DHT22;8691;50.828;4.700;2023-08-30T06:30:03;14.70;99.90
17152;DHT22;8691;50.828;4.700;2023-08-30T06:32:30;14.70;99.90
17152;DHT22;8691;50.828;4.700;2023-08-30T06:34:57;14.70;99.90
17152;DHT22;8691;50.828;4.700;2023-08-30T06:37:23;14.70;99.90
17152;DHT22;8691;50.828;4.700;2023-08-30T06:39:50;14.80;99.90
17152;DHT22;8691;50.828;4.700;2023-08-30T06:42:17;14.90;99.90
17152;DHT22;8691;50.828;4.700;2023-08-30T06:44:44;15.00;99.90
17152;DHT22;8691;50.828;4.700;2023-08-30T06:47:11;15.10;99.90
17152;DHT22;8691;50.828;4.700;2023-08-30T06:49:37;15.30;99.90
17152;DHT22;8691;50.828;4.700;2023-08-30T06:52:04;15.30;99.90
17152;DHT22;8691;50.828;4.700;2023-08-30T06:54:34;15.40;99.90
17152;DHT22;8691;50.828;4.700;2023-08-30T06:57:01;15.50;99.90
17152;DHT22;8691;50.828;4.700;2023-08-30T06:59:28;15.50;99.90
17152;DHT22;8691;50.828;4.700;2023-08-30T07:01:55;15.50;99.90
17152;DHT22;8691;50.828;4.700;2023-08-30T07:04:22;15.60;99.90
17152;DHT22;8691;50.828;4.700;2023-08-30T07:06:50;15.60;99.90
17152;DHT22;8691;50.828;4.700;2023-08-30T07:09:17;15.50;99.90
17152;DHT22;8691;50.828;4.700;2023-08-30T07:11:44;15.50;99.90
17152;DHT22;8691;50.828;4.700;2023-08-30T07:14:11;15.50;99.90
17152;DHT22;8691;50.828;4.700;2023-08-30T07:16:38;15.50;99.90
17152;DHT22;8691;50.828;4.700;2023-08-30T07:19:05;15.40;99.90
17152;DHT22;8691;50.828;4.700;2023-08-30T07:21:31;15.40;99.90
17152;DHT22;8691;50.828;4.700;2023-08-30T07:23:58;15.40;99.90
17152;DHT22;8691;50.828;4.700;2023-08-30T07:26:25;15.40;99.90
17152;DHT22;8691;50.828;4.700;2023-08-30T07:28:53;15.30;99.90
17152;DHT22;8691;50.828;4.700;2023-08-30T07:31:20;15.30;99.90
17152;DHT22;8691;50.828;4.700;2023-08-30T07:33:46;15.30;99.90
17152;DHT22;8691;50.828;4.700;2023-08-30T07:36:13;15.30;99.90
17152;DHT22;8691;50.828;4.700;2023-08-30T07:38:40;15.30;99.90
17152;DHT22;8691;50.828;4.700;2023-08-30T07:41:07;15.40;99.90
17152;DHT22;8691;50.828;4.700;2023-08-30T07:43:34;15.40;99.90
17152;DHT22;8691;50.828;4.700;2023-08-30T07:46:01;15.50;99.90
17152;DHT22;8691;50.828;4.700;2023-08-30T07:48:28;15.50;99.90
17152;DHT22;8691;50.828;4.700;2023-08-30T07:50:55;15.50;99.90
17152;DHT22;8691;50.828;4.700;2023-08-30T07:53:22;15.40;99.90
17152;DHT22;8691;50.828;4.700;2023-08-30T07:55:49;15.30;99.90
17152;DHT22;8691;50.828;4.700;2023-08-30T07:58:16;15.30;99.90
17152;DHT22;8691;50.828;4.700;2023-08-30T08:00:42;15.30;99.90
17152;DHT22;8691;50.828;4.700;2023-08-30T08:03:09;15.30;99.90
17152;DHT22;8691;50.828;4.700;2023-08-30T08:05:36;15.50;99.90
17152;DHT22;8691;50.828;4.700;2023-08-30T08:08:03;15.60;99.90
17152;DHT22;8691;50.828;4.700;2023-08-30T08:10:33;15.60;99.90
17152;DHT22;8691;50.828;4.700;2023-08-30T08:13:02;15.60;99.90
17152;DHT22;8691;50.828;4.700;2023-08-30T08:15:29;15.60;99.90
17152;DHT22;8691;50.828;4.700;2023-08-30T08:17:56;15.50;99.90
17152;DHT22;8691;50.828;4.700;2023-08-30T08:20:23;15.40;99.90
17152;DHT22;8691;50.828;4.700;2023-08-30T08:22:50;15.40;99.90
17152;DHT22;8691;50.828;4.700;2023-08-30T08:25:17;15.50;99.90
17152;DHT22;8691;50.828;4.700;2023-08-30T08:27:44;15.50;99.90
17152;DHT22;8691;50.828;4.700;2023-08-30T08:30:11;15.50;99.90
17152;DHT22;8691;50.828;4.700;2023-08-30T08:32:38;15.50;99.90
17152;DHT22;8691;50.828;4.700;2023-08-30T08:35:05;15.50;99.90
17152;DHT22;8691;50.828;4.700;2023-08-30T08:37:32;15.50;99.90
17152;DHT22;8691;50.828;4.700;2023-08-30T08:39:59;15.50;99.90
17152;DHT22;8691;50.828;4.700;2023-08-30T08:42:26;15.40;99.90
17152;DHT22;8691;50.828;4.700;2023-08-30T08:44:53;15.50;99.90
17152;DHT22;8691;50.828;4.700;2023-08-30T08:47:20;15.60;99.90
17152;DHT22;8691;50.828;4.700;2023-08-30T08:49:47;15.60;99.90
17152;DHT22;8691;50.828;4.700;2023-08-30T08:52:16;15.70;99.90
17152;DHT22;8691;50.828;4.700;2023-08-30T08:54:43;16.00;99.90
17152;DHT22;8691;50.828;4.700;2023-08-30T08:57:10;16.20;99.90
17152;DHT22;8691;50.828;4.700;2023-08-30T08:59:36;16.50;99.90
17152;DHT22;8691;50.828;4.700;2023-08-30T09:02:03;16.70;99.90
17152;DHT22;8691;50.828;4.700;2023-08-30T09:04:31;16.70;99.90
17152;DHT22;8691;50.828;4.700;2023-08-30T09:06:58;16.70;99.90
17152;DHT22;8691;50.828;4.700;2023-08-30T09:09:25;16.70;99.90
17152;DHT22;8691;50.828;4.700;2023-08-30T09:11:52;16.70;99.90
17152;DHT22;8691;50.828;4.700;2023-08-30T09:14:19;16.70;99.90
17152;DHT22;8691;50.828;4.700;2023-08-30T09:16:58;16.70;99.90
17152;DHT22;8691;50.828;4.700;2023-08-30T09:19:25;16.80;99.90
17152;DHT22;8691;50.828;4.700;2023-08-30T09:21:55;16.80;99.90
17152;DHT22;8691;50.828;4.700;2023-08-30T09:24:21;16.90;99.90
17152;DHT22;8691;50.828;4.700;2023-08-30T09:26:49;17.10;99.90
17152;DHT22;8691;50.828;4.700;2023-08-30T09:29:16;17.30;99.90
17152;DHT22;8691;50.828;4.700;2023-08-30T09:31:41;17.40;99.90
17152;DHT22;8691;50.828;4.700;2023-08-30T09:34:08;17.70;99.90
17152;DHT22;8691;50.828;4.700;2023-08-30T09:36:35;18.20;99.90
17152;DHT22;8691;50.828;4.700;2023-08-30T09:39:06;18.60;99.90
17152;DHT22;8691;50.828;4.700;2023-08-30T09:41:32;18.50;99.90
17152;DHT22;8691;50.828;4.700;2023-08-30T09:43:59;18.60;99.90
17152;DHT22;8691;50.828;4.700;2023-08-30T09:46:26;18.50;99.90
17152;DHT22;8691;50.828;4.700;2023-08-30T09:48:56;18.50;99.90
17152;DHT22;8691;50.828;4.700;2023-08-30T09:51:23;18.50;99.90
17152;DHT22;8691;50.828;4.700;2023-08-30T09:53:50;18.60;99.90
17152;DHT22;8691;50.828;4.700;2023-08-30T09:56:17;18.50;99.90
17152;DHT22;8691;50.828;4.700;2023-08-30T09:58:44;18.60;99.90
17152;DHT22;8691;50.828;4.700;2023-08-30T10:01:10;18.50;99.90
17152;DHT22;8691;50.828;4.700;2023-08-30T10:03:37;18.50;99.90
17152;DHT22;8691;50.828;4.700;2023-08-30T10:06:04;18.40;99.90
17152;DHT22;8691;50.828;4.700;2023-08-30T10:08:31;18.40;99.90
17152;DHT22;8691;50.828;4.700;2023-08-30T10:10:58;18.50;99.90
17152;DHT22;8691;50.828;4.700;2023-08-30T10:13:25;18.60;99.90
17152;DHT22;8691;50.828;4.700;2023-08-30T10:15:53;18.70;99.90
17152;DHT22;8691;50.828;4.700;2023-08-30T10:18:19;18.90;99.90
17152;DHT22;8691;50.828;4.700;2023-08-30T10:20:46;19.00;99.90
17152;DHT22;8691;50.828;4.700;2023-08-30T10:23:13;18.90;99.90
17152;DHT22;8691;50.828;4.700;2023-08-30T10:25:39;18.80;99.90
17152;DHT22;8691;50.828;4.700;2023-08-30T10:28:07;18.50;99.90
17152;DHT22;8691;50.828;4.700;2023-08-30T10:30:34;18.50;99.90
17152;DHT22;8691;50.828;4.700;2023-08-30T10:33:01;18.50;99.90
17152;DHT22;8691;50.828;4.700;2023-08-30T10:35:28;18.30;99.90
17152;DHT22;8691;50.828;4.700;2023-08-30T10:37:59;18.20;99.90
17152;DHT22;8691;50.828;4.700;2023-08-30T10:40:24;18.20;99.90
17152;DHT22;8691;50.828;4.700;2023-08-30T10:43:03;18.10;99.90
17152;DHT22;8691;50.828;4.700;2023-08-30T10:45:30;18.20;99.90
17152;DHT22;8691;50.828;4.700;2023-08-30T10:47:58;18.10;99.90
17152;DHT22;8691;50.828;4.700;2023-08-30T10:50:30;18.10;99.90
17152;DHT22;8691;50.828;4.700;2023-08-30T10:52:57;18.10;99.90
17152;DHT22;8691;50.828;4.700;2023-08-30T10:55:23;18.10;99.90
17152;DHT22;8691;50.828;4.700;2023-08-30T10:58:03;18.10;99.90
17152;DHT22;8691;50.828;4.700;2023-08-30T11:00:29;18.50;99.90
17152;DHT22;8691;50.828;4.700;2023-08-30T11:02:57;18.70;99.90
17152;DHT22;8691;50.828;4.700;2023-08-30T11:05:24;18.70;99.90
17152;DHT22;8691;50.828;4.700;2023-08-30T11:07:50;18.90;99.90
17152;DHT22;8691;50.828;4.700;2023-08-30T11:10:18;19.00;99.90
17152;DHT22;8691;50.828;4.700;2023-08-30T11:12:44;19.20;99.90
17152;DHT22;8691;50.828;4.700;2023-08-30T11:15:11;19.30;99.90
17152;DHT22;8691;50.828;4.700;2023-08-30T11:17:39;19.70;99.90
17152;DHT22;8691;50.828;4.700;2023-08-30T11:20:11;19.60;99.90
17152;DHT22;8691;50.828;4.700;2023-08-30T11:22:39;19.70;99.90
17152;DHT22;8691;50.828;4.700;2023-08-30T11:25:05;19.80;99.90
17152;DHT22;8691;50.828;4.700;2023-08-30T11:27:32;19.70;99.90
17152;DHT22;8691;50.828;4.700;2023-08-30T11:30:00;20.20;99.90
17152;DHT22;8691;50.828;4.700;2023-08-30T11:32:27;20.20;99.90
17152;DHT22;8691;50.828;4.700;2023-08-30T11:34:56;20.10;99.90
17152;DHT22;8691;50.828;4.700;2023-08-30T11:37:29;20.10;99.90
17152;DHT22;8691;50.828;4.700;2023-08-30T11:39:56;20.20;99.90
17152;DHT22;8691;50.828;4.700;2023-08-30T11:42:23;20.30;99.90
17152;DHT22;8691;50.828;4.700;2023-08-30T11:44:50;20.20;99.90
17152;DHT22;8691;50.828;4.700;2023-08-30T11:47:20;20.50;99.90
17152;DHT22;8691;50.828;4.700;2023-08-30T11:49:50;20.70;99.90
17152;DHT22;8691;50.828;4.700;2023-08-30T11:52:17;20.70;99.90
17152;DHT22;8691;50.828;4.700;2023-08-30T11:54:44;20.80;99.90
17152;DHT22;8691;50.828;4.700;2023-08-30T11:57:10;20.90;99.90
17152;DHT22;8691;50.828;4.700;2023-08-30T11:59:37;21.10;99.90
17152;DHT22;8691;50.828;4.700;2023-08-30T12:02:04;21.40;99.90
17152;DHT22;8691;50.828;4.700;2023-08-30T12:04:31;22.10;99.90
17152;DHT22;8691;50.828;4.700;2023-08-30T12:06:58;22.10;99.90
17152;DHT22;8691;50.828;4.700;2023-08-30T12:09:31;22.30;99.90
17152;DHT22;8691;50.828;4.700;2023-08-30T12:12:05;22.10;99.90
17152;DHT22;8691;50.828;4.700;2023-08-30T12:14:35;22.00;99.90
17152;DHT22;8691;50.828;4.700;2023-08-30T12:17:03;21.10;99.90
17152;DHT22;8691;50.828;4.700;2023-08-30T12:19:30;21.10;99.90
17152;DHT22;8691;50.828;4.700;2023-08-30T12:22:02;20.90;99.90
17152;DHT22;8691;50.828;4.700;2023-08-30T12:24:23;21.10;99.90
17152;DHT22;8691;50.828;4.700;2023-08-30T12:26:51;21.10;99.90
17152;DHT22;8691;50.828;4.700;2023-08-30T12:29:17;21.10;99.90
17152;DHT22;8691;50.828;4.700;2023-08-30T12:31:44;21.30;99.90
17152;DHT22;8691;50.828;4.700;2023-08-30T12:34:11;21.50;99.90
17152;DHT22;8691;50.828;4.700;2023-08-30T12:36:39;22.20;99.90
17152;DHT22;8691;50.828;4.700;2023-08-30T12:39:06;22.20;99.90
17152;DHT22;8691;50.828;4.700;2023-08-30T12:41:32;22.40;99.90
17152;DHT22;8691;50.828;4.700;2023-08-30T12:43:59;22.20;99.90
17152;DHT22;8691;50.828;4.700;2023-08-30T12:46:27;21.80;99.90
17152;DHT22;8691;50.828;4.700;2023-08-30T12:48:54;21.60;99.90
17152;DHT22;8691;50.828;4.700;2023-08-30T12:51:21;21.60;99.90
17152;DHT22;8691;50.828;4.700;2023-08-30T12:53:48;21.50;99.90
17152;DHT22;8691;50.828;4.700;2023-08-30T12:56:15;21.60;99.90
17152;DHT22;8691;50.828;4.700;2023-08-30T12:58:42;21.60;99.90
17152;DHT22;8691;50.828;4.700;2023-08-30T13:01:09;22.00;99.90
17152;DHT22;8691;50.828;4.700;2023-08-30T13:03:36;21.90;99.90
17152;DHT22;8691;50.828;4.700;2023-08-30T13:06:03;22.00;99.90
17152;DHT22;8691;50.828;4.700;2023-08-30T13:08:30;21.80;99.90
17152;DHT22;8691;50.828;4.700;2023-08-30T13:10:59;21.60;99.90
17152;DHT22;8691;50.828;4.700;2023-08-30T13:13:23;21.50;99.90
17152;DHT22;8691;50.828;4.700;2023-08-30T13:15:50;21.70;99.90
17152;DHT22;8691;50.828;4.700;2023-08-30T13:18:17;21.80;99.90
17152;DHT22;8691;50.828;4.700;2023-08-30T13:20:44;21.70;99.90
17152;DHT22;8691;50.828;4.700;2023-08-30T13:23:11;21.70;99.90
17152;DHT22;8691;50.828;4.700;2023-08-30T13:25:41;21.70;99.90
17152;DHT22;8691;50.828;4.700;2023-08-30T13:28:07;21.60;99.90
17152;DHT22;8691;50.828;4.700;2023-08-30T13:30:35;21.20;99.90
17152;DHT22;8691;50.828;4.700;2023-08-30T13:33:02;21.20;99.90
17152;DHT22;8691;50.828;4.700;2023-08-30T13:35:29;21.20;99.90
17152;DHT22;8691;50.828;4.700;2023-08-30T13:37:56;21.30;99.90
17152;DHT22;8691;50.828;4.700;2023-08-30T13:40:22;21.10;99.90
17152;DHT22;8691;50.828;4.700;2023-08-30T13:42:49;21.10;99.90
17152;DHT22;8691;50.828;4.700;2023-08-30T13:45:16;21.10;99.90
17152;DHT22;8691;50.828;4.700;2023-08-30T13:47:43;21.10;99.90
17152;DHT22;8691;50.828;4.700;2023-08-30T13:50:10;21.40;99.90
17152;DHT22;8691;50.828;4.700;2023-08-30T13:52:36;21.60;99.90
17152;DHT22;8691;50.828;4.700;2023-08-30T13:55:03;21.60;99.90
17152;DHT22;8691;50.828;4.700;2023-08-30T13:57:30;21.60;99.90
17152;DHT22;8691;50.828;4.700;2023-08-30T13:59:57;21.70;99.90
17152;DHT22;8691;50.828;4.700;2023-08-30T14:02:24;21.50;99.70
17152;DHT22;8691;50.828;4.700;2023-08-30T14:04:52;21.40;99.90
17152;DHT22;8691;50.828;4.700;2023-08-30T14:07:18;21.00;99.90
17152;DHT22;8691;50.828;4.700;2023-08-30T14:09:45;20.80;99.90
17152;DHT22;8691;50.828;4.700;2023-08-30T14:12:12;20.70;99.90
17152;DHT22;8691;50.828;4.700;2023-08-30T14:14:39;20.70;99.90
17152;DHT22;8691;50.828;4.700;2023-08-30T14:17:06;20.70;99.90
17152;DHT22;8691;50.828;4.700;2023-08-30T14:19:36;20.60;99.90
17152;DHT22;8691;50.828;4.700;2023-08-30T14:21:59;20.70;99.90
17152;DHT22;8691;50.828;4.700;2023-08-30T14:24:27;20.70;99.90
17152;DHT22;8691;50.828;4.700;2023-08-30T14:26:53;20.80;99.90
17152;DHT22;8691;50.828;4.700;2023-08-30T14:29:20;20.80;99.90
17152;DHT22;8691;50.828;4.700;2023-08-30T14:31:47;20.80;99.90
17152;DHT22;8691;50.828;4.700;2023-08-30T14:34:14;20.80;99.90
17152;DHT22;8691;50.828;4.700;2023-08-30T14:36:41;20.90;99.90
17152;DHT22;8691;50.828;4.700;2023-08-30T14:39:07;20.80;99.90
17152;DHT22;8691;50.828;4.700;2023-08-30T14:41:35;20.80;99.90
17152;DHT22;8691;50.828;4.700;2023-08-30T14:44:01;20.70;99.90
17152;DHT22;8691;50.828;4.700;2023-08-30T14:46:28;20.70;99.90
17152;DHT22;8691;50.828;4.700;2023-08-30T14:48:55;20.80;99.90
17152;DHT22;8691;50.828;4.700;2023-08-30T14:51:22;21.20;99.90
17152;DHT22;8691;50.828;4.700;2023-08-30T14:53:49;21.20;99.90
17152;DHT22;8691;50.828;4.700;2023-08-30T14:56:15;20.90;99.90
17152;DHT22;8691;50.828;4.700;2023-08-30T14:58:42;20.60;99.90
17152;DHT22;8691;50.828;4.700;2023-08-30T15:01:09;20.40;99.90
17152;DHT22;8691;50.828;4.700;2023-08-30T15:03:36;20.40;99.90
17152;DHT22;8691;50.828;4.700;2023-08-30T15:06:02;20.60;99.90
17152;DHT22;8691;50.828;4.700;2023-08-30T15:08:29;20.70;99.90
17152;DHT22;8691;50.828;4.700;2023-08-30T15:10:57;20.70;99.90
17152;DHT22;8691;50.828;4.700;2023-08-30T15:13:23;20.50;99.90
17152;DHT22;8691;50.828;4.700;2023-08-30T15:15:49;20.40;99.90
17152;DHT22;8691;50.828;4.700;2023-08-30T15:18:16;20.40;99.90
17152;DHT22;8691;50.828;4.700;2023-08-30T15:20:43;20.40;99.90
17152;DHT22;8691;50.828;4.700;2023-08-30T15:23:11;20.50;99.90
17152;DHT22;8691;50.828;4.700;2023-08-30T15:25:39;20.40;99.90
17152;DHT22;8691;50.828;4.700;2023-08-30T15:28:04;20.40;99.90
17152;DHT22;8691;50.828;4.700;2023-08-30T15:30:31;20.60;99.90
17152;DHT22;8691;50.828;4.700;2023-08-30T15:32:59;20.40;99.90
17152;DHT22;8691;50.828;4.700;2023-08-30T15:35:25;20.40;99.90
17152;DHT22;8691;50.828;4.700;2023-08-30T15:37:52;20.40;99.90
17152;DHT22;8691;50.828;4.700;2023-08-30T15:40:19;20.50;99.90
17152;DHT22;8691;50.828;4.700;2023-08-30T15:42:46;20.40;99.90
17152;DHT22;8691;50.828;4.700;2023-08-30T15:45:12;20.40;99.90
17152;DHT22;8691;50.828;4.700;2023-08-30T15:47:39;20.40;99.90